sensor_id;sensor_type;location;lat;lon;timestamp;temperature;humidity
24146;DHT22;12308;50.948;4.706;2022-07-29T00:01:21;20.70;99.90
24146;DHT22;12308;50.948;4.706;2022-07-29T00:03:47;20.50;99.90
24146;DHT22;12308;50.948;4.706;2022-07-29T00:06:13;20.40;99.90
24146;DHT22;12308;50.948;4.706;2022-07-29T00:08:39;20.40;99.90
24146;DHT22;12308;50.948;4.706;2022-07-29T00:11:05;20.50;99.90
24146;DHT22;12308;50.948;4.706;2022-07-29T00:13:30;20.60;99.90
24146;DHT22;12308;50.948;4.706;2022-07-29T00:15:56;20.50;99.90
24146;DHT22;12308;50.948;4.706;2022-07-29T00:18:22;20.30;99.90
24146;DHT22;12308;50.948;4.706;2022-07-29T00:20:47;20.10;99.90
24146;DHT22;12308;50.948;4.706;2022-07-29T00:23:13;20.00;99.90
24146;DHT22;12308;50.948;4.706;2022-07-29T00:25:39;20.00;99.90
24146;DHT22;12308;50.948;4.706;2022-07-29T00:28:04;20.10;99.90
24146;DHT22;12308;50.948;4.706;2022-07-29T00:30:31;20.20;99.90
24146;DHT22;12308;50.948;4.706;2022-07-29T00:32:56;20.20;99.90
24146;DHT22;12308;50.948;4.706;2022-07-29T00:35:22;20.30;99.90
24146;DHT22;12308;50.948;4.706;2022-07-29T00:38:06;20.10;99.90
24146;DHT22;12308;50.948;4.706;2022-07-29T00:40:32;20.00;99.90
24146;DHT22;12308;50.948;4.706;2022-07-29T00:42:58;19.90;99.90
24146;DHT22;12308;50.948;4.706;2022-07-29T00:45:23;19.90;99.90
24146;DHT22;12308;50.948;4.706;2022-07-29T00:47:49;19.80;99.90
24146;DHT22;12308;50.948;4.706;2022-07-29T00:50:16;19.70;99.90
24146;DHT22;12308;50.948;4.706;2022-07-29T00:52:42;19.70;99.90
24146;DHT22;12308;50.948;4.706;2022-07-29T00:55:11;19.70;99.90
24146;DHT22;12308;50.948;4.706;2022-07-29T00:57:37;19.80;99.90
24146;DHT22;12308;50.948;4.706;2022-07-29T01:00:08;19.60;99.90
24146;DHT22;12308;50.948;4.706;2022-07-29T01:02:35;19.80;99.90
24146;DHT22;12308;50.948;4.706;2022-07-29T01:05:02;19.70;99.90
24146;DHT22;12308;50.948;4.706;2022-07-29T01:07:28;19.80;99.90
24146;DHT22;12308;50.948;4.706;2022-07-29T01:09:55;19.70;99.90
24146;DHT22;12308;50.948;4.706;2022-07-29T01:12:25;19.70;99.90
24146;DHT22;12308;50.948;4.706;2022-07-29T01:14:52;19.80;99.90
24146;DHT22;12308;50.948;4.706;2022-07-29T01:22:42;19.60;99.90
24146;DHT22;12308;50.948;4.706;2022-07-29T01:28:09;19.40;99.90
24146;DHT22;12308;50.948;4.706;2022-07-29T01:30:42;19.50;99.90
24146;DHT22;12308;50.948;4.706;2022-07-29T01:33:13;19.70;99.90
24146;DHT22;12308;50.948;4.706;2022-07-29T01:36:01;19.70;99.90
24146;DHT22;12308;50.948;4.706;2022-07-29T01:38:30;19.80;99.90
24146;DHT22;12308;50.948;4.706;2022-07-29T01:41:05;19.60;99.90
24146;DHT22;12308;50.948;4.706;2022-07-29T01:43:44;19.60;99.90
24146;DHT22;12308;50.948;4.706;2022-07-29T01:46:14;19.70;99.90
24146;DHT22;12308;50.948;4.706;2022-07-29T01:48:49;19.50;99.90
24146;DHT22;12308;50.948;4.706;2022-07-29T01:51:20;19.40;99.90
24146;DHT22;12308;50.948;4.706;2022-07-29T01:54:07;19.50;99.90
24146;DHT22;12308;50.948;4.706;2022-07-29T01:56:35;19.20;99.90
24146;DHT22;12308;50.948;4.706;2022-07-29T01:59:03;19.10;99.90
24146;DHT22;12308;50.948;4.706;2022-07-29T02:01:31;18.90;99.90
24146;DHT22;12308;50.948;4.706;2022-07-29T02:03:59;18.90;99.90
24146;DHT22;12308;50.948;4.706;2022-07-29T02:06:27;18.80;99.90
24146;DHT22;12308;50.948;4.706;2022-07-29T02:08:56;18.80;99.90
24146;DHT22;12308;50.948;4.706;2022-07-29T02:11:23;18.80;99.90
24146;DHT22;12308;50.948;4.706;2022-07-29T02:13:52;18.90;99.90
24146;DHT22;12308;50.948;4.706;2022-07-29T02:16:21;18.90;99.90
24146;DHT22;12308;50.948;4.706;2022-07-29T02:18:50;18.90;99.90
24146;DHT22;12308;50.948;4.706;2022-07-29T02:21:21;18.90;99.90
24146;DHT22;12308;50.948;4.706;2022-07-29T02:23:48;18.90;99.90
24146;DHT22;12308;50.948;4.706;2022-07-29T02:26:17;18.80;99.90
24146;DHT22;12308;50.948;4.706;2022-07-29T02:28:43;18.80;99.90
24146;DHT22;12308;50.948;4.706;2022-07-29T02:31:11;18.90;99.90
24146;DHT22;12308;50.948;4.706;2022-07-29T02:33:40;18.80;99.90
24146;DHT22;12308;50.948;4.706;2022-07-29T02:36:07;18.80;99.90
24146;DHT22;12308;50.948;4.706;2022-07-29T02:38:34;18.80;99.90
24146;DHT22;12308;50.948;4.706;2022-07-29T02:41:23;18.70;99.90
24146;DHT22;12308;50.948;4.706;2022-07-29T02:44:00;18.60;99.90
24146;DHT22;12308;50.948;4.706;2022-07-29T02:46:37;18.70;99.90
24146;DHT22;12308;50.948;4.706;2022-07-29T02:49:37;18.80;99.90
24146;DHT22;12308;50.948;4.706;2022-07-29T02:52:12;18.70;99.90
24146;DHT22;12308;50.948;4.706;2022-07-29T02:54:44;18.70;99.90
24146;DHT22;12308;50.948;4.706;2022-07-29T02:57:26;18.50;99.90
24146;DHT22;12308;50.948;4.706;2022-07-29T02:59:57;18.20;99.90
24146;DHT22;12308;50.948;4.706;2022-07-29T03:02:25;18.10;99.90
24146;DHT22;12308;50.948;4.706;2022-07-29T03:04:53;18.00;99.90
24146;DHT22;12308;50.948;4.706;2022-07-29T03:07:21;18.10;99.90
24146;DHT22;12308;50.948;4.706;2022-07-29T03:09:47;18.10;99.90
24146;DHT22;12308;50.948;4.706;2022-07-29T03:12:14;18.00;99.90
24146;DHT22;12308;50.948;4.706;2022-07-29T03:14:42;17.80;99.90
24146;DHT22;12308;50.948;4.706;2022-07-29T03:17:09;17.70;99.90
24146;DHT22;12308;50.948;4.706;2022-07-29T03:19:35;17.70;99.90
24146;DHT22;12308;50.948;4.706;2022-07-29T03:22:01;17.70;99.90
24146;DHT22;12308;50.948;4.706;2022-07-29T03:24:29;17.60;99.90
24146;DHT22;12308;50.948;4.706;2022-07-29T03:26:56;17.60;99.90
24146;DHT22;12308;50.948;4.706;2022-07-29T03:29:22;17.60;99.90
24146;DHT22;12308;50.948;4.706;2022-07-29T03:31:48;17.60;99.90
24146;DHT22;12308;50.948;4.706;2022-07-29T03:34:13;17.60;99.90
24146;DHT22;12308;50.948;4.706;2022-07-29T03:36:39;17.50;99.90
24146;DHT22;12308;50.948;4.706;2022-07-29T03:39:05;17.50;99.90
24146;DHT22;12308;50.948;4.706;2022-07-29T03:41:33;17.50;99.90
24146;DHT22;12308;50.948;4.706;2022-07-29T03:44:01;17.60;99.90
24146;DHT22;12308;50.948;4.706;2022-07-29T03:46:28;17.50;99.90
24146;DHT22;12308;50.948;4.706;2022-07-29T03:48:58;17.50;99.90
24146;DHT22;12308;50.948;4.706;2022-07-29T03:51:25;17.50;99.90
24146;DHT22;12308;50.948;4.706;2022-07-29T03:53:52;17.40;99.90
24146;DHT22;12308;50.948;4.706;2022-07-29T03:56:21;17.20;99.90
24146;DHT22;12308;50.948;4.706;2022-07-29T03:58:50;17.10;99.90
24146;DHT22;12308;50.948;4.706;2022-07-29T04:01:16;17.10;99.90
24146;DHT22;12308;50.948;4.706;2022-07-29T04:03:44;17.10;99.90
24146;DHT22;12308;50.948;4.706;2022-07-29T04:06:11;17.10;99.90
24146;DHT22;12308;50.948;4.706;2022-07-29T04:08:36;17.10;99.90
24146;DHT22;12308;50.948;4.706;2022-07-29T04:11:03;17.00;99.90
24146;DHT22;12308;50.948;4.706;2022-07-29T04:13:30;17.00;99.90
24146;DHT22;12308;50.948;4.706;2022-07-29T04:15:56;16.80;99.90
24146;DHT22;12308;50.948;4.706;2022-07-29T04:18:22;16.80;99.90
24146;DHT22;12308;50.948;4.706;2022-07-29T04:20:48;16.80;99.90
24146;DHT22;12308;50.948;4.706;2022-07-29T04:23:14;16.90;99.90
24146;DHT22;12308;50.948;4.706;2022-07-29T04:25:41;16.80;99.90
24146;DHT22;12308;50.948;4.706;2022-07-29T04:28:08;16.70;99.90
24146;DHT22;12308;50.948;4.706;2022-07-29T04:30:35;16.80;99.90
24146;DHT22;12308;50.948;4.706;2022-07-29T04:33:03;16.70;99.90
24146;DHT22;12308;50.948;4.706;2022-07-29T04:35:30;16.80;99.90
24146;DHT22;12308;50.948;4.706;2022-07-29T04:37:56;16.80;99.90
24146;DHT22;12308;50.948;4.706;2022-07-29T04:40:22;16.80;99.90
24146;DHT22;12308;50.948;4.706;2022-07-29T04:42:47;16.70;99.90
24146;DHT22;12308;50.948;4.706;2022-07-29T04:45:13;16.80;99.90
24146;DHT22;12308;50.948;4.706;2022-07-29T04:47:39;16.70;99.90
24146;DHT22;12308;50.948;4.706;2022-07-29T04:50:06;16.70;99.90
24146;DHT22;12308;50.948;4.706;2022-07-29T04:52:33;16.80;99.90
24146;DHT22;12308;50.948;4.706;2022-07-29T04:55:00;16.70;99.90
24146;DHT22;12308;50.948;4.706;2022-07-29T04:57:25;16.60;99.90
24146;DHT22;12308;50.948;4.706;2022-07-29T04:59:51;16.70;99.90
24146;DHT22;12308;50.948;4.706;2022-07-29T05:02:17;16.70;99.90
24146;DHT22;12308;50.948;4.706;2022-07-29T05:04:42;16.80;99.90
24146;DHT22;12308;50.948;4.706;2022-07-29T05:07:08;16.70;99.90
24146;DHT22;12308;50.948;4.706;2022-07-29T05:09:34;16.80;99.90
24146;DHT22;12308;50.948;4.706;2022-07-29T05:11:59;16.90;99.90
24146;DHT22;12308;50.948;4.706;2022-07-29T05:14:25;17.00;99.90
24146;DHT22;12308;50.948;4.706;2022-07-29T05:16:51;17.10;99.90
24146;DHT22;12308;50.948;4.706;2022-07-29T05:19:17;17.10;99.90
24146;DHT22;12308;50.948;4.706;2022-07-29T05:21:44;17.10;99.90
24146;DHT22;12308;50.948;4.706;2022-07-29T05:24:10;17.20;99.90
24146;DHT22;12308;50.948;4.706;2022-07-29T05:26:35;17.20;99.90
24146;DHT22;12308;50.948;4.706;2022-07-29T05:29:01;17.30;99.90
24146;DHT22;12308;50.948;4.706;2022-07-29T05:31:27;17.40;99.90
24146;DHT22;12308;50.948;4.706;2022-07-29T05:33:52;17.40;99.90
24146;DHT22;12308;50.948;4.706;2022-07-29T05:36:18;17.60;99.90
24146;DHT22;12308;50.948;4.706;2022-07-29T05:38:44;17.60;99.90
24146;DHT22;12308;50.948;4.706;2022-07-29T05:41:10;17.80;99.90
24146;DHT22;12308;50.948;4.706;2022-07-29T05:43:35;17.90;99.90
24146;DHT22;12308;50.948;4.706;2022-07-29T05:46:01;17.90;99.90
24146;DHT22;12308;50.948;4.706;2022-07-29T05:48:27;18.00;99.90
24146;DHT22;12308;50.948;4.706;2022-07-29T05:50:53;18.20;99.90
24146;DHT22;12308;50.948;4.706;2022-07-29T05:53:19;18.20;99.90
24146;DHT22;12308;50.948;4.706;2022-07-29T05:55:44;18.20;99.90
24146;DHT22;12308;50.948;4.706;2022-07-29T05:58:10;18.30;99.90
24146;DHT22;12308;50.948;4.706;2022-07-29T06:00:35;18.60;99.90
24146;DHT22;12308;50.948;4.706;2022-07-29T06:03:01;18.50;99.90
24146;DHT22;12308;50.948;4.706;2022-07-29T06:05:27;18.60;99.90
24146;DHT22;12308;50.948;4.706;2022-07-29T06:07:53;18.80;99.90
24146;DHT22;12308;50.948;4.706;2022-07-29T06:10:19;18.70;99.90
24146;DHT22;12308;50.948;4.706;2022-07-29T06:12:44;18.80;99.90
24146;DHT22;12308;50.948;4.706;2022-07-29T06:15:10;19.10;99.90
24146;DHT22;12308;50.948;4.706;2022-07-29T06:17:36;19.30;99.90
24146;DHT22;12308;50.948;4.706;2022-07-29T06:20:03;19.70;99.90
24146;DHT22;12308;50.948;4.706;2022-07-29T06:22:29;19.80;99.90
24146;DHT22;12308;50.948;4.706;2022-07-29T06:24:55;19.70;99.90
24146;DHT22;12308;50.948;4.706;2022-07-29T06:27:21;19.70;99.90
24146;DHT22;12308;50.948;4.706;2022-07-29T06:29:46;19.80;99.90
24146;DHT22;12308;50.948;4.706;2022-07-29T06:32:12;19.80;99.90
24146;DHT22;12308;50.948;4.706;2022-07-29T06:34:37;19.80;99.90
24146;DHT22;12308;50.948;4.706;2022-07-29T06:37:07;19.90;99.90
24146;DHT22;12308;50.948;4.706;2022-07-29T06:39:36;19.90;99.90
24146;DHT22;12308;50.948;4.706;2022-07-29T06:42:03;19.70;99.90
24146;DHT22;12308;50.948;4.706;2022-07-29T06:44:29;19.70;99.90
24146;DHT22;12308;50.948;4.706;2022-07-29T06:46:56;19.80;99.90
24146;DHT22;12308;50.948;4.706;2022-07-29T06:49:22;19.80;99.90
24146;DHT22;12308;50.948;4.706;2022-07-29T06:51:49;19.90;99.90
24146;DHT22;12308;50.948;4.706;2022-07-29T06:54:15;19.80;99.90
24146;DHT22;12308;50.948;4.706;2022-07-29T06:56:40;19.90;99.90
24146;DHT22;12308;50.948;4.706;2022-07-29T06:59:08;19.90;99.90
24146;DHT22;12308;50.948;4.706;2022-07-29T07:01:36;19.80;99.90
24146;DHT22;12308;50.948;4.706;2022-07-29T07:04:02;19.70;99.90
24146;DHT22;12308;50.948;4.706;2022-07-29T07:06:28;19.70;99.90
24146;DHT22;12308;50.948;4.706;2022-07-29T07:08:53;19.80;99.90
24146;DHT22;12308;50.948;4.706;2022-07-29T07:11:19;19.90;99.90
24146;DHT22;12308;50.948;4.706;2022-07-29T07:13:45;19.70;99.90
24146;DHT22;12308;50.948;4.706;2022-07-29T07:16:10;19.80;99.90
24146;DHT22;12308;50.948;4.706;2022-07-29T07:18:36;20.00;99.90
24146;DHT22;12308;50.948;4.706;2022-07-29T07:21:02;20.00;99.90
24146;DHT22;12308;50.948;4.706;2022-07-29T07:23:27;19.90;99.90
24146;DHT22;12308;50.948;4.706;2022-07-29T07:25:53;19.90;99.90
24146;DHT22;12308;50.948;4.706;2022-07-29T07:28:19;20.20;99.90
24146;DHT22;12308;50.948;4.706;2022-07-29T07:30:45;20.30;99.90
24146;DHT22;12308;50.948;4.706;2022-07-29T07:33:11;20.40;99.90
24146;DHT22;12308;50.948;4.706;2022-07-29T07:35:36;20.50;99.90
24146;DHT22;12308;50.948;4.706;2022-07-29T07:38:02;20.50;99.90
24146;DHT22;12308;50.948;4.706;2022-07-29T07:40:28;20.60;99.90
24146;DHT22;12308;50.948;4.706;2022-07-29T07:42:54;20.50;99.90
24146;DHT22;12308;50.948;4.706;2022-07-29T07:45:19;20.50;99.90
24146;DHT22;12308;50.948;4.706;2022-07-29T07:47:45;20.40;99.90
24146;DHT22;12308;50.948;4.706;2022-07-29T07:50:12;20.30;99.90
24146;DHT22;12308;50.948;4.706;2022-07-29T07:52:56;20.30;99.90
24146;DHT22;12308;50.948;4.706;2022-07-29T07:55:25;20.60;99.90
24146;DHT22;12308;50.948;4.706;2022-07-29T07:57:52;20.70;99.90
24146;DHT22;12308;50.948;4.706;2022-07-29T08:00:18;21.00;99.90
24146;DHT22;12308;50.948;4.706;2022-07-29T08:02:43;21.00;99.90
24146;DHT22;12308;50.948;4.706;2022-07-29T08:05:11;21.00;99.90
24146;DHT22;12308;50.948;4.706;2022-07-29T08:07:39;20.90;99.90
24146;DHT22;12308;50.948;4.706;2022-07-29T08:10:05;21.20;99.90
24146;DHT22;12308;50.948;4.706;2022-07-29T08:12:30;21.10;99.90
24146;DHT22;12308;50.948;4.706;2022-07-29T08:14:56;21.10;99.90
24146;DHT22;12308;50.948;4.706;2022-07-29T08:17:22;21.30;99.90
24146;DHT22;12308;50.948;4.706;2022-07-29T08:19:47;21.50;99.90
24146;DHT22;12308;50.948;4.706;2022-07-29T08:22:14;21.50;99.90
24146;DHT22;12308;50.948;4.706;2022-07-29T08:24:40;21.50;99.90
24146;DHT22;12308;50.948;4.706;2022-07-29T08:27:11;21.60;99.90
24146;DHT22;12308;50.948;4.706;2022-07-29T08:29:38;21.80;99.90
24146;DHT22;12308;50.948;4.706;2022-07-29T08:32:04;21.90;99.90
24146;DHT22;12308;50.948;4.706;2022-07-29T08:34:31;21.90;99.90
24146;DHT22;12308;50.948;4.706;2022-07-29T08:36:57;22.00;99.90
24146;DHT22;12308;50.948;4.706;2022-07-29T08:39:23;21.90;99.90
24146;DHT22;12308;50.948;4.706;2022-07-29T08:41:51;22.10;99.90
24146;DHT22;12308;50.948;4.706;2022-07-29T08:44:18;22.10;99.90
24146;DHT22;12308;50.948;4.706;2022-07-29T08:46:44;22.20;99.90
24146;DHT22;12308;50.948;4.706;2022-07-29T08:49:10;22.30;99.90
24146;DHT22;12308;50.948;4.706;2022-07-29T08:51:36;22.30;99.90
24146;DHT22;12308;50.948;4.706;2022-07-29T08:54:04;22.30;99.90
24146;DHT22;12308;50.948;4.706;2022-07-29T08:56:30;22.40;99.90
24146;DHT22;12308;50.948;4.706;2022-07-29T08:58:58;22.30;99.90
24146;DHT22;12308;50.948;4.706;2022-07-29T09:01:27;22.30;99.90
24146;DHT22;12308;50.948;4.706;2022-07-29T09:03:56;22.50;99.90
24146;DHT22;12308;50.948;4.706;2022-07-29T09:06:22;22.80;99.90
24146;DHT22;12308;50.948;4.706;2022-07-29T09:08:53;22.80;99.90
24146;DHT22;12308;50.948;4.706;2022-07-29T09:11:20;23.10;99.90
24146;DHT22;12308;50.948;4.706;2022-07-29T09:13:45;23.30;99.90
24146;DHT22;12308;50.948;4.706;2022-07-29T09:16:11;23.30;99.90
24146;DHT22;12308;50.948;4.706;2022-07-29T09:18:40;23.20;99.90
24146;DHT22;12308;50.948;4.706;2022-07-29T09:21:09;23.30;99.90
24146;DHT22;12308;50.948;4.706;2022-07-29T09:24:01;23.30;99.90
24146;DHT22;12308;50.948;4.706;2022-07-29T09:26:31;23.30;99.90
24146;DHT22;12308;50.948;4.706;2022-07-29T09:28:58;23.30;99.90
24146;DHT22;12308;50.948;4.706;2022-07-29T09:31:32;23.40;99.90
24146;DHT22;12308;50.948;4.706;2022-07-29T09:34:00;23.50;99.90
24146;DHT22;12308;50.948;4.706;2022-07-29T09:36:26;23.40;99.90
24146;DHT22;12308;50.948;4.706;2022-07-29T09:39:01;23.60;99.90
24146;DHT22;12308;50.948;4.706;2022-07-29T09:41:29;23.70;99.90
24146;DHT22;12308;50.948;4.706;2022-07-29T09:43:56;23.90;99.90
24146;DHT22;12308;50.948;4.706;2022-07-29T09:46:22;23.90;99.90
24146;DHT22;12308;50.948;4.706;2022-07-29T09:49:10;23.90;99.90
24146;DHT22;12308;50.948;4.706;2022-07-29T09:51:36;24.00;99.90
24146;DHT22;12308;50.948;4.706;2022-07-29T09:54:24;24.00;99.90
24146;DHT22;12308;50.948;4.706;2022-07-29T09:56:52;24.00;99.90
24146;DHT22;12308;50.948;4.706;2022-07-29T09:59:17;24.10;99.90
24146;DHT22;12308;50.948;4.706;2022-07-29T10:01:46;24.20;99.90
24146;DHT22;12308;50.948;4.706;2022-07-29T10:04:11;24.20;99.90
24146;DHT22;12308;50.948;4.706;2022-07-29T10:06:59;24.20;99.90
24146;DHT22;12308;50.948;4.706;2022-07-29T10:09:25;24.20;99.90
24146;DHT22;12308;50.948;4.706;2022-07-29T10:12:10;24.30;99.90
24146;DHT22;12308;50.948;4.706;2022-07-29T10:14:37;24.20;99.90
24146;DHT22;12308;50.948;4.706;2022-07-29T10:17:05;24.30;99.90
24146;DHT22;12308;50.948;4.706;2022-07-29T10:19:31;24.50;99.90
24146;DHT22;12308;50.948;4.706;2022-07-29T10:21:59;24.60;99.90
24146;DHT22;12308;50.948;4.706;2022-07-29T10:24:29;24.60;99.90
24146;DHT22;12308;50.948;4.706;2022-07-29T10:26:56;24.60;99.90
24146;DHT22;12308;50.948;4.706;2022-07-29T10:29:22;24.50;99.90
24146;DHT22;12308;50.948;4.706;2022-07-29T10:34:57;24.70;99.90
24146;DHT22;12308;50.948;4.706;2022-07-29T10:37:28;24.80;99.90
24146;DHT22;12308;50.948;4.706;2022-07-29T10:43:30;25.00;99.90
24146;DHT22;12308;50.948;4.706;2022-07-29T10:45:59;24.90;99.90
24146;DHT22;12308;50.948;4.706;2022-07-29T10:48:26;24.70;99.90
24146;DHT22;12308;50.948;4.706;2022-07-29T10:53:19;25.10;99.90
24146;DHT22;12308;50.948;4.706;2022-07-29T10:55:46;25.10;99.90
24146;DHT22;12308;50.948;4.706;2022-07-29T10:58:21;25.10;99.90
24146;DHT22;12308;50.948;4.706;2022-07-29T11:00:52;25.20;99.90
24146;DHT22;12308;50.948;4.706;2022-07-29T11:06:06;25.20;99.90
24146;DHT22;12308;50.948;4.706;2022-07-29T11:08:31;25.10;99.90
24146;DHT22;12308;50.948;4.706;2022-07-29T11:16:17;25.50;99.90
24146;DHT22;12308;50.948;4.706;2022-07-29T11:21:37;25.80;99.90
24146;DHT22;12308;50.948;4.706;2022-07-29T11:24:17;25.60;99.90
24146;DHT22;12308;50.948;4.706;2022-07-29T11:26:43;25.40;99.90
24146;DHT22;12308;50.948;4.706;2022-07-29T11:29:21;25.30;99.90
24146;DHT22;12308;50.948;4.706;2022-07-29T11:31:52;25.40;99.90
24146;DHT22;12308;50.948;4.706;2022-07-29T11:34:31;25.50;99.90
24146;DHT22;12308;50.948;4.706;2022-07-29T11:47:28;25.80;99.90
24146;DHT22;12308;50.948;4.706;2022-07-29T11:49:55;25.90;99.90
24146;DHT22;12308;50.948;4.706;2022-07-29T11:52:23;26.00;99.90
24146;DHT22;12308;50.948;4.706;2022-07-29T11:54:50;26.10;99.90
24146;DHT22;12308;50.948;4.706;2022-07-29T11:57:17;26.40;99.90
24146;DHT22;12308;50.948;4.706;2022-07-29T11:59:44;26.50;99.90
24146;DHT22;12308;50.948;4.706;2022-07-29T12:02:11;26.50;99.90
24146;DHT22;12308;50.948;4.706;2022-07-29T12:04:52;26.40;99.90
24146;DHT22;12308;50.948;4.706;2022-07-29T12:07:32;26.60;99.90
24146;DHT22;12308;50.948;4.706;2022-07-29T12:09:58;26.70;99.90
24146;DHT22;12308;50.948;4.706;2022-07-29T12:12:24;26.80;99.90
24146;DHT22;12308;50.948;4.706;2022-07-29T12:14:50;26.70;99.90
24146;DHT22;12308;50.948;4.706;2022-07-29T12:17:30;26.70;99.90
24146;DHT22;12308;50.948;4.706;2022-07-29T12:19:58;26.80;99.90
24146;DHT22;12308;50.948;4.706;2022-07-29T12:22:36;26.80;99.90
24146;DHT22;12308;50.948;4.706;2022-07-29T12:25:10;26.70;99.90
24146;DHT22;12308;50.948;4.706;2022-07-29T12:27:37;27.00;99.90
24146;DHT22;12308;50.948;4.706;2022-07-29T12:30:16;27.30;99.60
24146;DHT22;12308;50.948;4.706;2022-07-29T12:32:47;27.40;99.10
24146;DHT22;12308;50.948;4.706;2022-07-29T12:35:14;27.40;98.80
24146;DHT22;12308;50.948;4.706;2022-07-29T12:37:42;27.60;99.10
24146;DHT22;12308;50.948;4.706;2022-07-29T12:40:10;27.60;99.20
24146;DHT22;12308;50.948;4.706;2022-07-29T12:42:36;27.60;98.10
24146;DHT22;12308;50.948;4.706;2022-07-29T12:45:03;27.50;98.50
24146;DHT22;12308;50.948;4.706;2022-07-29T12:47:29;27.40;98.10
24146;DHT22;12308;50.948;4.706;2022-07-29T12:50:12;27.30;98.70
24146;DHT22;12308;50.948;4.706;2022-07-29T12:52:46;27.40;97.90
24146;DHT22;12308;50.948;4.706;2022-07-29T12:55:12;27.40;98.20
24146;DHT22;12308;50.948;4.706;2022-07-29T12:57:49;27.60;98.00
24146;DHT22;12308;50.948;4.706;2022-07-29T13:00:23;27.90;98.30
24146;DHT22;12308;50.948;4.706;2022-07-29T13:02:59;27.90;97.80
24146;DHT22;12308;50.948;4.706;2022-07-29T13:05:45;28.10;98.40
24146;DHT22;12308;50.948;4.706;2022-07-29T13:08:15;28.20;98.20
24146;DHT22;12308;50.948;4.706;2022-07-29T13:10:41;28.30;97.60
24146;DHT22;12308;50.948;4.706;2022-07-29T13:13:10;28.30;97.10
24146;DHT22;12308;50.948;4.706;2022-07-29T13:15:37;28.10;96.80
24146;DHT22;12308;50.948;4.706;2022-07-29T13:18:03;28.10;97.10
24146;DHT22;12308;50.948;4.706;2022-07-29T13:20:30;28.00;97.30
24146;DHT22;12308;50.948;4.706;2022-07-29T13:22:57;27.90;97.30
24146;DHT22;12308;50.948;4.706;2022-07-29T13:25:31;28.00;97.20
24146;DHT22;12308;50.948;4.706;2022-07-29T13:27:58;28.00;96.50
24146;DHT22;12308;50.948;4.706;2022-07-29T13:30:24;28.10;96.80
24146;DHT22;12308;50.948;4.706;2022-07-29T13:32:52;27.90;96.70
24146;DHT22;12308;50.948;4.706;2022-07-29T13:35:18;27.70;97.00
24146;DHT22;12308;50.948;4.706;2022-07-29T13:37:44;27.70;97.30
24146;DHT22;12308;50.948;4.706;2022-07-29T13:40:11;27.80;97.00
24146;DHT22;12308;50.948;4.706;2022-07-29T13:42:37;27.90;97.30
24146;DHT22;12308;50.948;4.706;2022-07-29T13:45:04;27.90;96.70
24146;DHT22;12308;50.948;4.706;2022-07-29T13:47:31;27.60;96.50
24146;DHT22;12308;50.948;4.706;2022-07-29T13:49:57;27.40;97.20
24146;DHT22;12308;50.948;4.706;2022-07-29T13:52:23;27.30;97.60
24146;DHT22;12308;50.948;4.706;2022-07-29T13:54:48;27.60;97.10
24146;DHT22;12308;50.948;4.706;2022-07-29T13:57:14;27.90;96.60
24146;DHT22;12308;50.948;4.706;2022-07-29T13:59:41;28.00;96.80
24146;DHT22;12308;50.948;4.706;2022-07-29T14:02:08;28.20;96.30
24146;DHT22;12308;50.948;4.706;2022-07-29T14:04:34;28.40;95.90
24146;DHT22;12308;50.948;4.706;2022-07-29T14:07:00;28.50;95.60
24146;DHT22;12308;50.948;4.706;2022-07-29T14:09:26;28.50;95.90
24146;DHT22;12308;50.948;4.706;2022-07-29T14:11:51;28.50;96.40
24146;DHT22;12308;50.948;4.706;2022-07-29T14:14:18;28.50;95.40
24146;DHT22;12308;50.948;4.706;2022-07-29T14:16:44;28.60;95.40
24146;DHT22;12308;50.948;4.706;2022-07-29T14:19:10;28.50;96.00
24146;DHT22;12308;50.948;4.706;2022-07-29T14:21:37;28.10;96.50
24146;DHT22;12308;50.948;4.706;2022-07-29T14:24:03;27.90;96.80
24146;DHT22;12308;50.948;4.706;2022-07-29T14:26:28;27.90;96.30
24146;DHT22;12308;50.948;4.706;2022-07-29T14:28:54;27.90;96.50
24146;DHT22;12308;50.948;4.706;2022-07-29T14:31:20;27.80;97.00
24146;DHT22;12308;50.948;4.706;2022-07-29T14:33:45;28.10;95.90
24146;DHT22;12308;50.948;4.706;2022-07-29T14:36:11;28.10;96.20
24146;DHT22;12308;50.948;4.706;2022-07-29T14:38:37;27.90;96.70
24146;DHT22;12308;50.948;4.706;2022-07-29T14:41:04;27.90;96.60
24146;DHT22;12308;50.948;4.706;2022-07-29T14:43:30;28.10;96.50
24146;DHT22;12308;50.948;4.706;2022-07-29T14:45:55;28.00;96.10
24146;DHT22;12308;50.948;4.706;2022-07-29T14:48:21;28.10;96.10
24146;DHT22;12308;50.948;4.706;2022-07-29T14:50:47;27.60;96.10
24146;DHT22;12308;50.948;4.706;2022-07-29T14:53:13;27.50;96.50
24146;DHT22;12308;50.948;4.706;2022-07-29T14:55:39;27.40;96.80
24146;DHT22;12308;50.948;4.706;2022-07-29T14:58:05;27.50;96.60
24146;DHT22;12308;50.948;4.706;2022-07-29T15:00:31;27.40;96.70
24146;DHT22;12308;50.948;4.706;2022-07-29T15:02:59;27.40;96.70
24146;DHT22;12308;50.948;4.706;2022-07-29T15:05:26;27.70;95.90
24146;DHT22;12308;50.948;4.706;2022-07-29T15:07:51;27.90;95.70
24146;DHT22;12308;50.948;4.706;2022-07-29T15:10:17;28.10;95.50
24146;DHT22;12308;50.948;4.706;2022-07-29T15:12:43;28.40;95.50
24146;DHT22;12308;50.948;4.706;2022-07-29T15:15:09;28.50;95.30
24146;DHT22;12308;50.948;4.706;2022-07-29T15:17:35;28.50;95.40
24146;DHT22;12308;50.948;4.706;2022-07-29T15:20:01;28.50;94.60
24146;DHT22;12308;50.948;4.706;2022-07-29T15:22:27;28.60;94.80
24146;DHT22;12308;50.948;4.706;2022-07-29T15:24:53;28.70;95.20
24146;DHT22;12308;50.948;4.706;2022-07-29T15:27:18;28.80;94.70
24146;DHT22;12308;50.948;4.706;2022-07-29T15:29:44;28.50;94.80
24146;DHT22;12308;50.948;4.706;2022-07-29T15:32:10;28.30;94.60
24146;DHT22;12308;50.948;4.706;2022-07-29T15:34:36;28.50;94.40
24146;DHT22;12308;50.948;4.706;2022-07-29T15:37:03;28.60;94.00
24146;DHT22;12308;50.948;4.706;2022-07-29T15:39:29;28.60;94.10
24146;DHT22;12308;50.948;4.706;2022-07-29T15:41:55;28.50;94.20
24146;DHT22;12308;50.948;4.706;2022-07-29T15:44:21;28.30;93.90
24146;DHT22;12308;50.948;4.706;2022-07-29T15:46:47;28.10;94.40
24146;DHT22;12308;50.948;4.706;2022-07-29T15:49:46;28.10;94.10
24146;DHT22;12308;50.948;4.706;2022-07-29T15:52:11;28.00;94.00
24146;DHT22;12308;50.948;4.706;2022-07-29T15:54:38;28.00;93.90
24146;DHT22;12308;50.948;4.706;2022-07-29T15:57:06;28.10;94.20
24146;DHT22;12308;50.948;4.706;2022-07-29T15:59:32;28.10;93.90
24146;DHT22;12308;50.948;4.706;2022-07-29T16:01:58;27.90;94.20
24146;DHT22;12308;50.948;4.706;2022-07-29T16:04:24;27.80;94.00
24146;DHT22;12308;50.948;4.706;2022-07-29T16:06:50;27.60;94.60
24146;DHT22;12308;50.948;4.706;2022-07-29T16:09:17;27.40;94.60
24146;DHT22;12308;50.948;4.706;2022-07-29T16:11:43;27.40;94.90
24146;DHT22;12308;50.948;4.706;2022-07-29T16:14:11;27.50;94.90